sensor_id;sensor_type;location;lat;lon;timestamp;pressure;altitude;pressure_sealevel;temperature;humidity
77086;BME280;66014;53.134;18.006;2023-07-20T00:01:29;100401.38;;;17.23;67.77
77086;BME280;66014;53.134;18.006;2023-07-20T00:03:58;100396.98;;;17.24;67.83
77086;BME280;66014;53.134;18.006;2023-07-20T00:06:27;100395.54;;;17.24;67.87
77086;BME280;66014;53.134;18.006;2023-07-20T00:08:56;100391.20;;;17.23;68.06
77086;BME280;66014;53.134;18.006;2023-07-20T00:11:26;100389.30;;;17.24;68.11
77086;BME280;66014;53.134;18.006;2023-07-20T00:13:55;100392.48;;;17.26;68.27
77086;BME280;66014;53.134;18.006;2023-07-20T00:16:21;100392.13;;;17.25;68.55
77086;BME280;66014;53.134;18.006;2023-07-20T00:18:48;100398.13;;;17.22;68.89
77086;BME280;66014;53.134;18.006;2023-07-20T00:21:14;100403.21;;;17.19;69.12
77086;BME280;66014;53.134;18.006;2023-07-20T00:23:41;100403.45;;;17.16;69.55
77086;BME280;66014;53.134;18.006;2023-07-20T00:26:07;100404.88;;;17.14;69.53
77086;BME280;66014;53.134;18.006;2023-07-20T00:28:32;100401.59;;;17.13;69.43
77086;BME280;66014;53.134;18.006;2023-07-20T00:30:59;100394.95;;;17.15;69.37
77086;BME280;66014;53.134;18.006;2023-07-20T00:33:26;100406.94;;;17.18;69.42
77086;BME280;66014;53.134;18.006;2023-07-20T00:35:52;100411.42;;;17.21;69.63
77086;BME280;66014;53.134;18.006;2023-07-20T00:38:18;100416.46;;;17.22;69.90
77086;BME280;66014;53.134;18.006;2023-07-20T00:40:44;100411.66;;;17.21;70.05
77086;BME280;66014;53.134;18.006;2023-07-20T00:43:10;100407.77;;;17.21;69.97
77086;BME280;66014;53.134;18.006;2023-07-20T00:45:38;100396.09;;;17.23;70.18
77086;BME280;66014;53.134;18.006;2023-07-20T00:48:05;100390.60;;;17.24;69.93
77086;BME280;66014;53.134;18.006;2023-07-20T00:50:33;100393.17;;;17.28;69.77
77086;BME280;66014;53.134;18.006;2023-07-20T00:53:00;100398.45;;;17.32;69.54
77086;BME280;66014;53.134;18.006;2023-07-20T00:55:30;100397.34;;;17.36;69.26
77086;BME280;66014;53.134;18.006;2023-07-20T00:57:59;100401.82;;;17.38;69.01
77086;BME280;66014;53.134;18.006;2023-07-20T01:00:37;100399.87;;;17.41;68.73
77086;BME280;66014;53.134;18.006;2023-07-20T01:03:06;100403.23;;;17.40;68.48
77086;BME280;66014;53.134;18.006;2023-07-20T01:05:58;100404.40;;;17.36;68.58
77086;BME280;66014;53.134;18.006;2023-07-20T01:08:43;100403.17;;;17.35;68.54
77086;BME280;66014;53.134;18.006;2023-07-20T01:11:54;100403.02;;;17.34;68.60
77086;BME280;66014;53.134;18.006;2023-07-20T01:14:14;100400.23;;;17.32;68.53
77086;BME280;66014;53.134;18.006;2023-07-20T01:16:40;100402.05;;;17.29;68.50
77086;BME280;66014;53.134;18.006;2023-07-20T01:19:06;100407.81;;;17.28;68.54
77086;BME280;66014;53.134;18.006;2023-07-20T01:21:51;100404.15;;;17.26;68.40
77086;BME280;66014;53.134;18.006;2023-07-20T01:29:43;100412.02;;;17.20;68.61
77086;BME280;66014;53.134;18.006;2023-07-20T01:32:17;100412.31;;;17.18;68.81
77086;BME280;66014;53.134;18.006;2023-07-20T01:34:56;100407.66;;;17.17;68.74
77086;BME280;66014;53.134;18.006;2023-07-20T01:37:24;100403.77;;;17.18;68.66
77086;BME280;66014;53.134;18.006;2023-07-20T01:39:54;100402.96;;;17.20;68.77
77086;BME280;66014;53.134;18.006;2023-07-20T01:42:23;100403.58;;;17.20;68.68
77086;BME280;66014;53.134;18.006;2023-07-20T01:44:51;100404.31;;;17.20;68.68
77086;BME280;66014;53.134;18.006;2023-07-20T01:47:20;100404.23;;;17.21;68.71
77086;BME280;66014;53.134;18.006;2023-07-20T01:49:46;100404.17;;;17.21;68.61
77086;BME280;66014;53.134;18.006;2023-07-20T01:52:12;100405.16;;;17.22;68.48
77086;BME280;66014;53.134;18.006;2023-07-20T01:54:39;100405.21;;;17.21;68.39
77086;BME280;66014;53.134;18.006;2023-07-20T01:57:05;100406.52;;;17.22;68.44
77086;BME280;66014;53.134;18.006;2023-07-20T01:59:30;100409.04;;;17.24;68.40
77086;BME280;66014;53.134;18.006;2023-07-20T02:01:56;100408.16;;;17.25;68.44
77086;BME280;66014;53.134;18.006;2023-07-20T02:04:22;100412.52;;;17.25;68.29
77086;BME280;66014;53.134;18.006;2023-07-20T02:06:48;100414.83;;;17.27;68.23
77086;BME280;66014;53.134;18.006;2023-07-20T02:09:13;100416.02;;;17.27;68.14
77086;BME280;66014;53.134;18.006;2023-07-20T02:11:39;100416.26;;;17.25;68.03
77086;BME280;66014;53.134;18.006;2023-07-20T02:14:05;100416.42;;;17.24;68.05
77086;BME280;66014;53.134;18.006;2023-07-20T02:16:31;100421.39;;;17.25;68.11
77086;BME280;66014;53.134;18.006;2023-07-20T02:18:57;100422.08;;;17.23;67.75
77086;BME280;66014;53.134;18.006;2023-07-20T02:21:24;100421.32;;;17.20;67.84
77086;BME280;66014;53.134;18.006;2023-07-20T02:23:49;100430.09;;;17.17;67.81
77086;BME280;66014;53.134;18.006;2023-07-20T02:26:16;100428.23;;;17.14;67.92
77086;BME280;66014;53.134;18.006;2023-07-20T02:28:42;100420.19;;;17.13;67.76
77086;BME280;66014;53.134;18.006;2023-07-20T02:31:07;100421.39;;;17.12;67.76
77086;BME280;66014;53.134;18.006;2023-07-20T02:33:37;100423.45;;;17.12;67.86
77086;BME280;66014;53.134;18.006;2023-07-20T02:36:03;100420.30;;;17.13;67.76
77086;BME280;66014;53.134;18.006;2023-07-20T02:38:29;100415.86;;;17.14;67.73
77086;BME280;66014;53.134;18.006;2023-07-20T02:40:55;100415.13;;;17.13;67.84
77086;BME280;66014;53.134;18.006;2023-07-20T02:43:20;100406.35;;;17.13;67.77
77086;BME280;66014;53.134;18.006;2023-07-20T02:45:46;100406.62;;;17.12;67.88
77086;BME280;66014;53.134;18.006;2023-07-20T02:48:12;100402.73;;;17.12;67.88
77086;BME280;66014;53.134;18.006;2023-07-20T02:50:38;100404.69;;;17.11;67.91
77086;BME280;66014;53.134;18.006;2023-07-20T02:53:05;100405.40;;;17.09;67.85
77086;BME280;66014;53.134;18.006;2023-07-20T02:55:30;100411.60;;;17.09;68.08
77086;BME280;66014;53.134;18.006;2023-07-20T02:57:59;100408.41;;;17.06;68.11
77086;BME280;66014;53.134;18.006;2023-07-20T03:00:25;100405.34;;;17.04;68.22
77086;BME280;66014;53.134;18.006;2023-07-20T03:02:51;100412.48;;;17.02;68.30
77086;BME280;66014;53.134;18.006;2023-07-20T03:05:24;100410.19;;;16.99;68.26
77086;BME280;66014;53.134;18.006;2023-07-20T03:07:55;100412.95;;;16.97;68.57
77086;BME280;66014;53.134;18.006;2023-07-20T03:10:21;100412.17;;;16.96;68.46
77086;BME280;66014;53.134;18.006;2023-07-20T03:12:47;100413.84;;;16.95;68.63
77086;BME280;66014;53.134;18.006;2023-07-20T03:15:13;100417.13;;;16.93;68.55
77086;BME280;66014;53.134;18.006;2023-07-20T03:17:39;100421.23;;;16.92;68.40
77086;BME280;66014;53.134;18.006;2023-07-20T03:20:05;100419.34;;;16.92;68.45
77086;BME280;66014;53.134;18.006;2023-07-20T03:22:34;100420.55;;;16.91;68.48
77086;BME280;66014;53.134;18.006;2023-07-20T03:25:00;100417.61;;;16.91;68.37
77086;BME280;66014;53.134;18.006;2023-07-20T03:27:27;100413.86;;;16.92;68.41
77086;BME280;66014;53.134;18.006;2023-07-20T03:29:54;100411.08;;;16.94;68.21
77086;BME280;66014;53.134;18.006;2023-07-20T03:32:20;100416.34;;;16.97;68.18
77086;BME280;66014;53.134;18.006;2023-07-20T03:34:46;100414.55;;;17.01;68.01
77086;BME280;66014;53.134;18.006;2023-07-20T03:37:13;100418.70;;;17.04;67.94
77086;BME280;66014;53.134;18.006;2023-07-20T03:39:39;100419.25;;;17.07;67.75
77086;BME280;66014;53.134;18.006;2023-07-20T03:42:06;100423.61;;;17.09;67.78
77086;BME280;66014;53.134;18.006;2023-07-20T03:44:32;100423.64;;;17.11;67.45
77086;BME280;66014;53.134;18.006;2023-07-20T03:46:58;100421.80;;;17.11;67.01
77086;BME280;66014;53.134;18.006;2023-07-20T03:49:24;100422.02;;;17.13;67.09
77086;BME280;66014;53.134;18.006;2023-07-20T03:51:49;100422.44;;;17.17;66.88
77086;BME280;66014;53.134;18.006;2023-07-20T03:54:15;100417.66;;;17.19;66.72
77086;BME280;66014;53.134;18.006;2023-07-20T03:56:41;100422.59;;;17.22;66.52
77086;BME280;66014;53.134;18.006;2023-07-20T03:59:07;100420.86;;;17.25;66.67
77086;BME280;66014;53.134;18.006;2023-07-20T04:01:36;100420.19;;;17.28;66.43
77086;BME280;66014;53.134;18.006;2023-07-20T04:04:07;100419.17;;;17.30;66.37
77086;BME280;66014;53.134;18.006;2023-07-20T04:06:34;100417.21;;;17.31;66.27
77086;BME280;66014;53.134;18.006;2023-07-20T04:09:00;100417.85;;;17.33;66.16
77086;BME280;66014;53.134;18.006;2023-07-20T04:11:26;100425.02;;;17.37;66.32
77086;BME280;66014;53.134;18.006;2023-07-20T04:13:51;100427.92;;;17.40;66.08
77086;BME280;66014;53.134;18.006;2023-07-20T04:16:17;100425.40;;;17.44;66.02
77086;BME280;66014;53.134;18.006;2023-07-20T04:18:45;100429.09;;;17.50;66.04
77086;BME280;66014;53.134;18.006;2023-07-20T04:21:11;100427.54;;;17.58;65.68
77086;BME280;66014;53.134;18.006;2023-07-20T04:23:37;100433.52;;;17.65;65.60
77086;BME280;66014;53.134;18.006;2023-07-20T04:26:03;100429.97;;;17.70;65.63
77086;BME280;66014;53.134;18.006;2023-07-20T04:28:29;100424.96;;;17.76;65.35
77086;BME280;66014;53.134;18.006;2023-07-20T04:30:54;100426.66;;;17.81;65.08
77086;BME280;66014;53.134;18.006;2023-07-20T04:33:20;100423.32;;;17.86;65.00
77086;BME280;66014;53.134;18.006;2023-07-20T04:35:56;100422.98;;;17.90;64.98
77086;BME280;66014;53.134;18.006;2023-07-20T04:38:22;100424.08;;;17.96;64.77
77086;BME280;66014;53.134;18.006;2023-07-20T04:40:49;100422.42;;;17.99;64.34
77086;BME280;66014;53.134;18.006;2023-07-20T04:43:31;100423.64;;;18.01;64.19
77086;BME280;66014;53.134;18.006;2023-07-20T04:46:40;100431.91;;;18.07;64.10
77086;BME280;66014;53.134;18.006;2023-07-20T04:49:06;100431.45;;;18.10;63.97
77086;BME280;66014;53.134;18.006;2023-07-20T04:51:31;100426.79;;;18.13;63.94
77086;BME280;66014;53.134;18.006;2023-07-20T04:53:57;100425.13;;;18.16;63.58
77086;BME280;66014;53.134;18.006;2023-07-20T04:56:24;100428.58;;;18.19;63.43
77086;BME280;66014;53.134;18.006;2023-07-20T04:58:50;100428.65;;;18.24;63.47
77086;BME280;66014;53.134;18.006;2023-07-20T05:01:16;100431.45;;;18.30;63.13
77086;BME280;66014;53.134;18.006;2023-07-20T05:03:43;100432.23;;;18.32;63.09
77086;BME280;66014;53.134;18.006;2023-07-20T05:06:09;100429.34;;;18.36;63.02
77086;BME280;66014;53.134;18.006;2023-07-20T05:08:34;100427.02;;;18.40;62.61
77086;BME280;66014;53.134;18.006;2023-07-20T05:11:00;100427.15;;;18.42;62.78
77086;BME280;66014;53.134;18.006;2023-07-20T05:13:27;100424.79;;;18.46;62.57
77086;BME280;66014;53.134;18.006;2023-07-20T05:15:53;100427.27;;;18.55;62.31
77086;BME280;66014;53.134;18.006;2023-07-20T05:18:19;100427.89;;;18.63;62.15
77086;BME280;66014;53.134;18.006;2023-07-20T05:20:47;100433.52;;;18.68;61.83
77086;BME280;66014;53.134;18.006;2023-07-20T05:23:13;100437.48;;;18.70;61.95
77086;BME280;66014;53.134;18.006;2023-07-20T05:25:39;100434.87;;;18.67;61.62
77086;BME280;66014;53.134;18.006;2023-07-20T05:28:05;100436.05;;;18.62;61.44
77086;BME280;66014;53.134;18.006;2023-07-20T05:30:32;100436.06;;;18.58;61.65
77086;BME280;66014;53.134;18.006;2023-07-20T05:32:57;100434.96;;;18.57;61.51
77086;BME280;66014;53.134;18.006;2023-07-20T05:35:23;100434.83;;;18.58;61.54
77086;BME280;66014;53.134;18.006;2023-07-20T05:37:49;100434.83;;;18.60;61.63
77086;BME280;66014;53.134;18.006;2023-07-20T05:40:15;100441.73;;;18.64;61.52
77086;BME280;66014;53.134;18.006;2023-07-20T05:42:45;100439.69;;;18.67;61.34
77086;BME280;66014;53.134;18.006;2023-07-20T05:49:02;100442.95;;;18.71;61.15
77086;BME280;66014;53.134;18.006;2023-07-20T05:52:09;100442.27;;;18.79;60.80
77086;BME280;66014;53.134;18.006;2023-07-20T05:54:35;100444.81;;;18.95;60.73
77086;BME280;66014;53.134;18.006;2023-07-20T05:57:01;100445.14;;;19.19;60.29
77086;BME280;66014;53.134;18.006;2023-07-20T05:59:27;100444.08;;;19.48;59.67
77086;BME280;66014;53.134;18.006;2023-07-20T06:01:55;100442.42;;;19.74;59.10
77086;BME280;66014;53.134;18.006;2023-07-20T06:04:21;100442.85;;;19.93;58.75
77086;BME280;66014;53.134;18.006;2023-07-20T06:06:47;100439.52;;;20.09;58.42
77086;BME280;66014;53.134;18.006;2023-07-20T06:09:13;100439.53;;;20.24;57.92
77086;BME280;66014;53.134;18.006;2023-07-20T06:11:40;100436.92;;;20.60;57.19
77086;BME280;66014;53.134;18.006;2023-07-20T06:14:06;100435.95;;;21.19;56.08
77086;BME280;66014;53.134;18.006;2023-07-20T06:16:32;100439.16;;;21.51;55.57
77086;BME280;66014;53.134;18.006;2023-07-20T06:19:04;100438.27;;;21.69;54.99
77086;BME280;66014;53.134;18.006;2023-07-20T06:21:41;100439.55;;;21.72;54.23
77086;BME280;66014;53.134;18.006;2023-07-20T06:24:13;100439.38;;;21.62;54.20
77086;BME280;66014;53.134;18.006;2023-07-20T06:26:40;100439.02;;;21.93;53.71
77086;BME280;66014;53.134;18.006;2023-07-20T06:29:05;100439.38;;;21.90;52.84
77086;BME280;66014;53.134;18.006;2023-07-20T06:31:37;100434.69;;;22.09;51.73
77086;BME280;66014;53.134;18.006;2023-07-20T06:34:03;100433.16;;;22.44;51.49
77086;BME280;66014;53.134;18.006;2023-07-20T06:36:29;100435.92;;;22.49;51.59
77086;BME280;66014;53.134;18.006;2023-07-20T06:38:55;100433.66;;;23.47;50.26
77086;BME280;66014;53.134;18.006;2023-07-20T06:41:22;100434.32;;;24.37;49.33
77086;BME280;66014;53.134;18.006;2023-07-20T06:43:48;100436.73;;;24.93;48.53
77086;BME280;66014;53.134;18.006;2023-07-20T06:46:15;100441.76;;;26.25;46.33
77086;BME280;66014;53.134;18.006;2023-07-20T06:48:41;100440.77;;;27.39;44.37
77086;BME280;66014;53.134;18.006;2023-07-20T06:51:06;100440.39;;;27.69;43.91
77086;BME280;66014;53.134;18.006;2023-07-20T06:53:32;100439.73;;;27.52;42.13
77086;BME280;66014;53.134;18.006;2023-07-20T06:55:58;100441.73;;;26.87;42.65
77086;BME280;66014;53.134;18.006;2023-07-20T06:58:25;100439.61;;;26.19;42.73
77086;BME280;66014;53.134;18.006;2023-07-20T07:00:51;100438.84;;;25.66;43.26
77086;BME280;66014;53.134;18.006;2023-07-20T07:03:17;100446.33;;;25.19;43.47
77086;BME280;66014;53.134;18.006;2023-07-20T07:05:43;100447.17;;;24.66;43.62
77086;BME280;66014;53.134;18.006;2023-07-20T07:08:12;100442.98;;;24.24;44.20
77086;BME280;66014;53.134;18.006;2023-07-20T07:10:38;100442.43;;;24.36;43.12
77086;BME280;66014;53.134;18.006;2023-07-20T07:13:04;100445.59;;;25.26;41.83
77086;BME280;66014;53.134;18.006;2023-07-20T07:15:30;100445.88;;;25.28;42.18
77086;BME280;66014;53.134;18.006;2023-07-20T07:17:56;100446.11;;;25.59;42.34
77086;BME280;66014;53.134;18.006;2023-07-20T07:20:22;100444.73;;;26.15;41.55
77086;BME280;66014;53.134;18.006;2023-07-20T07:22:50;100442.65;;;26.62;39.64
77086;BME280;66014;53.134;18.006;2023-07-20T07:25:20;100440.77;;;27.49;37.98
77086;BME280;66014;53.134;18.006;2023-07-20T07:27:46;100442.86;;;28.85;37.02
77086;BME280;66014;53.134;18.006;2023-07-20T07:30:12;100441.34;;;30.12;36.03
77086;BME280;66014;53.134;18.006;2023-07-20T07:32:38;100440.30;;;31.03;34.61
77086;BME280;66014;53.134;18.006;2023-07-20T07:35:05;100439.59;;;30.36;34.30
77086;BME280;66014;53.134;18.006;2023-07-20T07:37:30;100436.95;;;30.72;32.40
77086;BME280;66014;53.134;18.006;2023-07-20T07:40:04;100438.76;;;31.18;32.34
77086;BME280;66014;53.134;18.006;2023-07-20T07:42:31;100444.00;;;31.65;29.72
77086;BME280;66014;53.134;18.006;2023-07-20T07:45:00;100441.27;;;30.82;31.36
77086;BME280;66014;53.134;18.006;2023-07-20T07:47:26;100445.72;;;31.63;30.45
77086;BME280;66014;53.134;18.006;2023-07-20T07:49:52;100448.30;;;31.85;30.19
77086;BME280;66014;53.134;18.006;2023-07-20T07:52:18;100446.55;;;31.16;30.87
77086;BME280;66014;53.134;18.006;2023-07-20T07:54:44;100446.15;;;30.59;31.10
77086;BME280;66014;53.134;18.006;2023-07-20T07:57:09;100446.60;;;30.72;30.49
77086;BME280;66014;53.134;18.006;2023-07-20T07:59:35;100449.05;;;30.01;31.51
77086;BME280;66014;53.134;18.006;2023-07-20T08:02:06;100445.98;;;30.93;30.05
77086;BME280;66014;53.134;18.006;2023-07-20T08:04:32;100444.94;;;32.45;28.51
77086;BME280;66014;53.134;18.006;2023-07-20T08:06:59;100445.54;;;32.81;28.54
77086;BME280;66014;53.134;18.006;2023-07-20T08:09:25;100441.73;;;31.72;28.48
77086;BME280;66014;53.134;18.006;2023-07-20T08:11:51;100444.09;;;32.34;28.13
77086;BME280;66014;53.134;18.006;2023-07-20T08:14:17;100438.89;;;34.05;26.57
77086;BME280;66014;53.134;18.006;2023-07-20T08:16:43;100437.52;;;35.00;26.54
77086;BME280;66014;53.134;18.006;2023-07-20T08:19:10;100434.89;;;35.34;25.82
77086;BME280;66014;53.134;18.006;2023-07-20T08:21:36;100436.86;;;34.60;25.45
77086;BME280;66014;53.134;18.006;2023-07-20T08:24:05;100438.03;;;33.29;26.04
77086;BME280;66014;53.134;18.006;2023-07-20T08:26:33;100436.80;;;32.32;27.12
77086;BME280;66014;53.134;18.006;2023-07-20T08:28:58;100439.56;;;32.09;26.85
77086;BME280;66014;53.134;18.006;2023-07-20T08:31:24;100437.40;;;32.79;26.84
77086;BME280;66014;53.134;18.006;2023-07-20T08:33:50;100438.77;;;33.71;26.09
77086;BME280;66014;53.134;18.006;2023-07-20T08:36:16;100436.07;;;34.80;25.47
77086;BME280;66014;53.134;18.006;2023-07-20T08:38:42;100440.00;;;36.40;23.38
77086;BME280;66014;53.134;18.006;2023-07-20T08:41:08;100440.62;;;36.53;21.10
77086;BME280;66014;53.134;18.006;2023-07-20T08:43:37;100443.65;;;36.13;21.91
77086;BME280;66014;53.134;18.006;2023-07-20T08:46:10;100440.52;;;36.60;22.33
77086;BME280;66014;53.134;18.006;2023-07-20T08:48:36;100439.80;;;37.47;20.91
77086;BME280;66014;53.134;18.006;2023-07-20T08:51:10;100434.30;;;36.23;21.61
77086;BME280;66014;53.134;18.006;2023-07-20T08:53:38;100432.52;;;34.01;23.07
77086;BME280;66014;53.134;18.006;2023-07-20T08:56:05;100436.79;;;32.27;24.64
77086;BME280;66014;53.134;18.006;2023-07-20T08:58:37;100436.09;;;30.56;25.96
77086;BME280;66014;53.134;18.006;2023-07-20T09:01:05;100438.43;;;29.32;27.69
77086;BME280;66014;53.134;18.006;2023-07-20T09:03:32;100436.09;;;28.55;29.03
77086;BME280;66014;53.134;18.006;2023-07-20T09:05:58;100432.08;;;29.94;28.47
77086;BME280;66014;53.134;18.006;2023-07-20T09:08:24;100429.47;;;31.89;27.04
77086;BME280;66014;53.134;18.006;2023-07-20T09:10:50;100428.50;;;33.65;26.19
77086;BME280;66014;53.134;18.006;2023-07-20T09:13:16;100426.42;;;33.72;25.27
77086;BME280;66014;53.134;18.006;2023-07-20T09:15:53;100422.23;;;34.40;24.81
77086;BME280;66014;53.134;18.006;2023-07-20T09:18:32;100428.13;;;36.33;23.42
77086;BME280;66014;53.134;18.006;2023-07-20T09:21:06;100423.66;;;38.12;21.72
77086;BME280;66014;53.134;18.006;2023-07-20T09:23:36;100418.45;;;39.46;20.43
77086;BME280;66014;53.134;18.006;2023-07-20T09:26:10;100415.47;;;40.33;18.93
77086;BME280;66014;53.134;18.006;2023-07-20T09:28:57;100418.32;;;41.25;18.62
77086;BME280;66014;53.134;18.006;2023-07-20T09:31:23;100418.33;;;42.32;16.48
77086;BME280;66014;53.134;18.006;2023-07-20T09:33:52;100409.36;;;42.95;16.44
77086;BME280;66014;53.134;18.006;2023-07-20T09:36:18;100404.45;;;43.61;16.01
77086;BME280;66014;53.134;18.006;2023-07-20T09:38:45;100398.33;;;42.44;15.69
77086;BME280;66014;53.134;18.006;2023-07-20T09:41:15;100395.85;;;41.64;16.06
77086;BME280;66014;53.134;18.006;2023-07-20T09:43:42;100399.52;;;40.57;16.23
77086;BME280;66014;53.134;18.006;2023-07-20T09:46:08;100394.77;;;38.54;17.38
77086;BME280;66014;53.134;18.006;2023-07-20T09:48:34;100395.83;;;38.17;17.65
77086;BME280;66014;53.134;18.006;2023-07-20T09:51:01;100395.15;;;38.67;17.73
77086;BME280;66014;53.134;18.006;2023-07-20T09:53:28;100394.50;;;39.17;17.38
77086;BME280;66014;53.134;18.006;2023-07-20T09:55:58;100397.25;;;40.16;16.27
77086;BME280;66014;53.134;18.006;2023-07-20T09:58:26;100392.90;;;40.61;16.21
77086;BME280;66014;53.134;18.006;2023-07-20T10:00:56;100391.48;;;40.78;15.97
77086;BME280;66014;53.134;18.006;2023-07-20T10:03:28;100392.15;;;41.38;15.96
77086;BME280;66014;53.134;18.006;2023-07-20T10:05:57;100398.13;;;42.19;15.07
77086;BME280;66014;53.134;18.006;2023-07-20T10:08:26;100392.23;;;42.84;14.97
77086;BME280;66014;53.134;18.006;2023-07-20T10:10:54;100388.66;;;43.60;14.15
77086;BME280;66014;53.134;18.006;2023-07-20T10:13:27;100386.25;;;43.68;14.02
77086;BME280;66014;53.134;18.006;2023-07-20T10:16:01;100383.84;;;44.11;13.97
77086;BME280;66014;53.134;18.006;2023-07-20T10:18:31;100380.42;;;43.96;14.12
77086;BME280;66014;53.134;18.006;2023-07-20T10:21:06;100383.40;;;42.16;14.90
77086;BME280;66014;53.134;18.006;2023-07-20T10:23:34;100382.35;;;42.11;14.67
77086;BME280;66014;53.134;18.006;2023-07-20T10:26:03;100375.20;;;42.49;14.40
77086;BME280;66014;53.134;18.006;2023-07-20T10:28:36;100376.64;;;42.46;14.91
77086;BME280;66014;53.134;18.006;2023-07-20T10:31:12;100369.52;;;41.05;15.51
77086;BME280;66014;53.134;18.006;2023-07-20T10:33:44;100367.85;;;39.81;16.02
77086;BME280;66014;53.134;18.006;2023-07-20T10:36:44;100369.65;;;37.52;17.43
77086;BME280;66014;53.134;18.006;2023-07-20T10:39:33;100367.10;;;35.82;18.80
77086;BME280;66014;53.134;18.006;2023-07-20T10:42:10;100367.55;;;34.85;19.41
77086;BME280;66014;53.134;18.006;2023-07-20T10:44:39;100365.23;;;33.22;21.06
77086;BME280;66014;53.134;18.006;2023-07-20T10:47:10;100362.64;;;32.44;22.04
77086;BME280;66014;53.134;18.006;2023-07-20T10:50:00;100362.80;;;33.50;21.84
77086;BME280;66014;53.134;18.006;2023-07-20T10:52:26;100366.21;;;36.08;20.16
77086;BME280;66014;53.134;18.006;2023-07-20T10:55:19;100367.83;;;37.06;19.17
77086;BME280;66014;53.134;18.006;2023-07-20T10:58:11;100361.23;;;38.27;18.75
77086;BME280;66014;53.134;18.006;2023-07-20T11:01:00;100360.41;;;37.06;19.17
77086;BME280;66014;53.134;18.006;2023-07-20T11:03:27;100362.61;;;38.56;18.57
77086;BME280;66014;53.134;18.006;2023-07-20T11:05:54;100361.42;;;40.02;17.41
77086;BME280;66014;53.134;18.006;2023-07-20T11:08:40;100355.62;;;40.72;16.86
77086;BME280;66014;53.134;18.006;2023-07-20T11:11:35;100353.67;;;41.50;15.80
77086;BME280;66014;53.134;18.006;2023-07-20T11:14:06;100348.35;;;40.76;16.29
77086;BME280;66014;53.134;18.006;2023-07-20T11:16:36;100345.25;;;39.54;16.90
77086;BME280;66014;53.134;18.006;2023-07-20T11:19:04;100348.23;;;37.96;17.86
77086;BME280;66014;53.134;18.006;2023-07-20T11:21:37;100350.13;;;36.36;18.71
77086;BME280;66014;53.134;18.006;2023-07-20T11:24:06;100346.04;;;34.47;20.28
77086;BME280;66014;53.134;18.006;2023-07-20T11:26:43;100345.11;;;32.97;21.52
77086;BME280;66014;53.134;18.006;2023-07-20T11:29:12;100343.64;;;31.91;22.76
77086;BME280;66014;53.134;18.006;2023-07-20T11:31:41;100338.15;;;31.14;23.61
77086;BME280;66014;53.134;18.006;2023-07-20T11:34:14;100336.25;;;30.59;24.38
77086;BME280;66014;53.134;18.006;2023-07-20T11:36:43;100334.17;;;30.29;24.73
77086;BME280;66014;53.134;18.006;2023-07-20T11:39:11;100338.04;;;29.60;25.51
77086;BME280;66014;53.134;18.006;2023-07-20T11:41:38;100344.05;;;28.95;26.24
77086;BME280;66014;53.134;18.006;2023-07-20T11:44:04;100360.21;;;28.43;27.32
77086;BME280;66014;53.134;18.006;2023-07-20T11:46:32;100377.54;;;27.81;30.36
77086;BME280;66014;53.134;18.006;2023-07-20T11:48:59;100387.84;;;26.98;33.79
77086;BME280;66014;53.134;18.006;2023-07-20T11:51:27;100408.20;;;25.91;39.23
77086;BME280;66014;53.134;18.006;2023-07-20T11:53:54;100426.36;;;24.56;40.72
77086;BME280;66014;53.134;18.006;2023-07-20T11:56:20;100428.02;;;23.46;42.39
77086;BME280;66014;53.134;18.006;2023-07-20T11:58:46;100437.05;;;22.65;44.42
77086;BME280;66014;53.134;18.006;2023-07-20T12:01:15;100454.28;;;21.96;46.12
77086;BME280;66014;53.134;18.006;2023-07-20T12:03:44;100450.85;;;21.58;47.91
77086;BME280;66014;53.134;18.006;2023-07-20T12:06:10;100441.17;;;21.29;50.14
77086;BME280;66014;53.134;18.006;2023-07-20T12:08:43;100446.10;;;21.13;50.91
77086;BME280;66014;53.134;18.006;2023-07-20T12:11:10;100447.67;;;21.04;51.63
77086;BME280;66014;53.134;18.006;2023-07-20T12:13:42;100453.41;;;20.97;52.24
77086;BME280;66014;53.134;18.006;2023-07-20T12:16:17;100457.91;;;20.97;52.54
77086;BME280;66014;53.134;18.006;2023-07-20T12:18:43;100453.84;;;20.93;53.01
77086;BME280;66014;53.134;18.006;2023-07-20T12:21:10;100451.00;;;20.89;53.74
77086;BME280;66014;53.134;18.006;2023-07-20T12:23:39;100449.39;;;20.93;54.00
77086;BME280;66014;53.134;18.006;2023-07-20T12:26:09;100448.32;;;21.59;53.08
77086;BME280;66014;53.134;18.006;2023-07-20T12:28:40;100446.63;;;22.54;52.85
77086;BME280;66014;53.134;18.006;2023-07-20T12:31:08;100450.61;;;22.84;52.13
77086;BME280;66014;53.134;18.006;2023-07-20T12:33:34;100454.39;;;22.89;52.20
77086;BME280;66014;53.134;18.006;2023-07-20T12:36:02;100452.33;;;22.81;51.95
77086;BME280;66014;53.134;18.006;2023-07-20T12:38:28;100454.64;;;22.71;52.05
77086;BME280;66014;53.134;18.006;2023-07-20T12:40:57;100451.77;;;22.65;52.16
77086;BME280;66014;53.134;18.006;2023-07-20T12:43:24;100449.81;;;22.62;52.33
77086;BME280;66014;53.134;18.006;2023-07-20T12:45:50;100450.88;;;22.69;52.03
77086;BME280;66014;53.134;18.006;2023-07-20T12:48:17;100455.83;;;22.77;52.16
77086;BME280;66014;53.134;18.006;2023-07-20T12:50:44;100448.31;;;22.81;51.86
77086;BME280;66014;53.134;18.006;2023-07-20T12:53:10;100445.23;;;22.91;52.06
77086;BME280;66014;53.134;18.006;2023-07-20T12:55:37;100445.88;;;23.12;52.60
77086;BME280;66014;53.134;18.006;2023-07-20T12:58:04;100439.08;;;23.36;52.82